Pagrindinis puslapis
METAR-TAF:

METAR-TAF

Oro uostai :

Kišiniovas, Moldavija

platuma: 46-55-40N, ilguma: 028-55-51E, Aukštis: 122 m

Dabartinis oras

Ataskaita buvo paskelbta 20 minutes, ne 08:30 UTC
Vėjas 4 kt iš Rytų/Šiaurės Rytų, svyruoja nuo Šiaurės/Šiaurės Rytų ir Rytų/Pietryčių
Temperatūra 17°C
Drėgmė 68%
Slėgis 1005 hPa
Matomumas 10 km arba daugiau
nėra debesų žemiau 1500 m ir nėra kamuolinių lietaus debesų

METAR: LUKK 010830Z 07004KT 020V120 CAVOK 17/11 Q1005 R09/D NOSIG

Laikas: 11:50 (08:50 UTC)

Prognozė

Ataskaita buvo paskelbta 3 valandos ir 30 minutes, ne 05:20 UTC
Prognozė galioja nuo 01 metu 06 UTC su 02 metu 06 UTC
Vėjas 8 kt iš Pietų/Pietryčių
Matomumas 10 km arba daugiau
Išsisklaidę debesys ne aukštis 4500 ft
Laikinai
nuo 01 metu 16 UTC su 01 metu 24 UTC
Išsisklaidę debesys ne aukštis 4000 ft, Liūtiniai kamuoliniai debesys.
Laikinai
nuo 02 metu 02 UTC su 02 metu 06 UTC
Su prošvaistėmis ne aukštis 600 ft

TAF: LUKK 010520Z 0106/0206 16008KT 9999 SCT045 TEMPO 0116/0124 SCT040CB TEMPO 0202/0206 BKN006

Orai ataskaitas ir orų prognozės (METAR, TAF).

turimą stotys yra geltonos ir raudonos taškus žemėlapyje.

Perkelti pele per norėdami pamatyti stoties vardą.

Tada spustelėkite, norėdami matyti oro stebėjimo ir prognozės.

Norėdami pakeisti žemėlapį: spustelėkite ant žalios mygtukų su juodo kryžiaus žemyn,; žalią mygtuką su brūkšneliu, jei norite nutolinti; arba žalių rodyklių gretimoms žemėlapius.


METAR-TAF: